Terminal Aerodrome Forecast
Issued by NWS Twin Cities, MN

Home | Current Version | Previous Version | Graphics & Text | Print | Product List | Glossary On
Versions: 1 2 3 4 5 6 7 8 9 10 11 12 13 14 15 16 17 18 19 20 21 22 23 24 25
000
FTUS43 KMPX 031502 AAA
TAFMSP
TAF AMD
KMSP 031502Z 0315/0418 26011KT P6SM BKN250
     FM031700 27014G22KT P6SM SCT120 BKN250
     FM032100 31018G27KT P6SM SCT070 BKN100
      TEMPO 0321/0324 6SM -SHRA BKN060
     FM040100 33014G21KT P6SM FEW100
     FM040600 34008KT P6SM SKC=

USA.gov is the U.S. government's official web portal to all federal, state and local government web resources and services.